createdAt,value
2018-12-25T00:02:36.058Z,12.28
2018-12-25T00:05:16.089Z,10.93
2018-12-25T00:07:56.336Z,12.88
2018-12-25T00:10:36.390Z,12.43
2018-12-25T00:13:16.420Z,10.25
2018-12-25T00:15:56.356Z,11.30
2018-12-25T00:18:38.560Z,11.68
2018-12-25T00:21:18.505Z,10.95
2018-12-25T00:23:58.502Z,11.40
2018-12-25T00:26:38.534Z,11.80
2018-12-25T00:29:18.617Z,10.60
2018-12-25T00:31:58.750Z,10.72
2018-12-25T00:34:39.302Z,10.93
2018-12-25T00:37:19.244Z,10.75
2018-12-25T00:39:59.194Z,11.53
2018-12-25T00:42:39.364Z,11.55
2018-12-25T00:45:18.878Z,10.78
2018-12-25T00:47:58.752Z,10.93
2018-12-25T00:50:38.985Z,10.38
2018-12-25T00:53:18.794Z,11.00
2018-12-25T00:55:58.743Z,11.20
2018-12-25T00:58:38.778Z,12.20
2018-12-25T01:01:18.830Z,11.97
2018-12-25T01:03:58.894Z,10.25
2018-12-25T01:06:38.987Z,11.85
2018-12-25T01:09:18.994Z,10.25
2018-12-25T01:11:58.954Z,10.30
2018-12-25T01:14:39.202Z,10.08
2018-12-25T01:17:19.275Z,10.53
2018-12-25T01:19:58.950Z,10.20
2018-12-25T01:22:39.022Z,9.90
2018-12-25T01:25:19.326Z,9.85
2018-12-25T01:27:59.443Z,9.60
2018-12-25T01:30:39.475Z,9.73
2018-12-25T01:33:19.396Z,9.40
2018-12-25T01:35:59.402Z,9.40
2018-12-25T01:38:39.480Z,9.65
2018-12-25T01:41:20.404Z,9.28
2018-12-25T01:44:00.811Z,9.20
2018-12-25T01:46:40.930Z,8.63
2018-12-25T01:49:20.946Z,9.15
2018-12-25T01:52:01.014Z,8.68
2018-12-25T01:54:41.313Z,8.75
2018-12-25T01:57:21.656Z,8.50
2018-12-25T02:00:01.549Z,8.85
2018-12-25T02:02:41.684Z,8.90
2018-12-25T02:05:21.918Z,8.50
2018-12-25T02:08:02.017Z,9.10
2018-12-25T02:10:41.874Z,9.05
2018-12-25T02:13:22.079Z,8.30
2018-12-25T02:16:02.313Z,8.78
2018-12-25T02:18:42.249Z,8.33
2018-12-25T02:21:22.219Z,8.65
2018-12-25T02:24:01.999Z,8.53
2018-12-25T02:26:42.152Z,8.70
2018-12-25T02:29:22.140Z,8.58
2018-12-25T02:32:02.103Z,8.65
2018-12-25T02:34:42.059Z,8.58
2018-12-25T02:37:22.035Z,8.70
2018-12-25T02:40:02.067Z,8.50
2018-12-25T02:42:42.107Z,8.50
2018-12-25T02:45:21.805Z,8.53
2018-12-25T02:48:01.948Z,8.80
2018-12-25T02:50:41.972Z,9.18
2018-12-25T02:53:22.030Z,8.53
2018-12-25T02:56:02.502Z,8.45
2018-12-25T02:58:42.192Z,8.98
2018-12-25T03:01:22.208Z,8.53
2018-12-25T03:04:02.375Z,8.55
2018-12-25T03:06:42.608Z,8.40
2018-12-25T03:09:22.746Z,8.53
2018-12-25T03:12:03.083Z,8.45
2018-12-25T03:14:43.346Z,8.78
2018-12-25T03:17:23.402Z,8.48
2018-12-25T03:20:03.437Z,7.95
2018-12-25T03:22:44.240Z,8.70
2018-12-25T03:25:24.143Z,8.50
2018-12-25T03:28:04.158Z,8.08
2018-12-25T03:30:44.128Z,8.10
2018-12-25T03:33:23.912Z,8.25
2018-12-25T03:36:04.063Z,8.38
2018-12-25T03:38:44.048Z,8.40
2018-12-25T03:41:24.386Z,8.98
2018-12-25T03:44:04.527Z,9.18
2018-12-25T03:46:44.385Z,8.35
2018-12-25T03:49:24.343Z,8.65
2018-12-25T03:52:04.162Z,8.20
2018-12-25T03:54:31.407Z,8.05
2018-12-25T03:56:58.768Z,7.55
2018-12-25T03:59:26.139Z,8.40
2018-12-25T04:01:53.504Z,8.58
2018-12-25T04:04:20.862Z,8.50
2018-12-25T04:06:48.157Z,8.13
2018-12-25T04:09:15.394Z,7.85
2018-12-25T04:11:42.723Z,7.78
2018-12-25T04:14:10.109Z,7.75
2018-12-25T04:16:37.432Z,7.42
2018-12-25T04:19:04.874Z,8.03
2018-12-25T04:21:51.769Z,8.33
2018-12-25T04:24:31.643Z,8.00
2018-12-25T04:27:11.750Z,7.90
2018-12-25T04:29:39.090Z,7.90
2018-12-25T04:32:06.402Z,8.45
2018-12-25T04:34:33.632Z,7.90
2018-12-25T04:37:00.957Z,8.10
2018-12-25T04:39:28.200Z,8.38
2018-12-25T04:41:55.584Z,8.10
2018-12-25T04:44:22.908Z,7.87
2018-12-25T04:46:50.257Z,8.08
2018-12-25T04:49:17.472Z,7.37
2018-12-25T04:51:44.834Z,9.08
2018-12-25T04:54:12.163Z,8.20
2018-12-25T04:56:39.502Z,8.38
2018-12-25T04:59:06.864Z,8.23
2018-12-25T05:01:34.183Z,7.53
2018-12-25T05:04:01.490Z,7.80
2018-12-25T05:06:28.806Z,7.92
2018-12-25T05:08:56.130Z,7.53
2018-12-25T05:11:23.447Z,8.10
2018-12-25T05:13:50.769Z,7.30
2018-12-25T05:16:18.012Z,7.65
2018-12-25T05:18:45.336Z,7.87
2018-12-25T05:21:12.693Z,7.67
2018-12-25T05:23:40.044Z,7.72
2018-12-25T05:26:07.372Z,7.97
2018-12-25T05:28:34.595Z,7.25
2018-12-25T05:31:01.841Z,7.75
2018-12-25T05:33:29.164Z,8.50
2018-12-25T05:35:56.470Z,7.53
2018-12-25T05:38:23.812Z,7.92
2018-12-25T05:40:51.054Z,7.72
2018-12-25T05:43:18.406Z,7.90
2018-12-25T05:45:45.736Z,7.75
2018-12-25T05:48:13.102Z,7.15
2018-12-25T05:50:46.531Z,8.65
2018-12-25T05:53:09.619Z,8.25
2018-12-25T05:55:36.950Z,8.03
2018-12-25T05:58:04.201Z,8.00
2018-12-25T06:00:31.533Z,7.33
2018-12-25T06:02:58.869Z,7.75
2018-12-25T06:05:26.224Z,7.95
2018-12-25T06:08:13.036Z,8.05
2018-12-25T06:10:59.867Z,7.90
2018-12-25T06:13:46.794Z,7.90
2018-12-25T06:16:33.636Z,7.78
2018-12-25T06:19:20.522Z,8.10
2018-12-25T06:22:07.389Z,8.20
2018-12-25T06:24:47.371Z,7.70
2018-12-25T06:27:27.510Z,7.87
2018-12-25T06:30:07.508Z,7.62
2018-12-25T06:32:47.525Z,8.68
2018-12-25T06:35:27.573Z,7.95
2018-12-25T06:38:07.830Z,7.65
2018-12-25T06:40:47.820Z,7.30
2018-12-25T06:43:28.205Z,7.58
2018-12-25T06:46:08.395Z,7.28
2018-12-25T06:48:48.404Z,7.92
2018-12-25T06:51:28.171Z,6.65
2018-12-25T06:54:08.293Z,7.40
2018-12-25T06:56:48.282Z,7.42
2018-12-25T06:59:28.256Z,7.20
2018-12-25T07:02:08.506Z,7.20
2018-12-25T07:04:48.637Z,7.90
2018-12-25T07:07:28.918Z,7.15
2018-12-25T07:10:08.989Z,7.03
2018-12-25T07:12:48.776Z,7.10
2018-12-25T07:15:33.014Z,7.65
2018-12-25T07:18:10.834Z,7.58
2018-12-25T07:20:51.031Z,8.75
2018-12-25T07:23:30.911Z,7.35
2018-12-25T07:26:11.021Z,8.00
2018-12-25T07:28:53.685Z,7.78
2018-12-25T07:31:33.780Z,7.30
2018-12-25T07:34:13.650Z,7.50
2018-12-25T07:36:53.683Z,7.85
2018-12-25T07:39:33.713Z,7.80
2018-12-25T07:42:13.694Z,8.30
2018-12-25T07:44:53.685Z,8.33
2018-12-25T07:47:33.688Z,8.50
2018-12-25T07:50:13.667Z,8.58
2018-12-25T07:52:53.652Z,8.28
2018-12-25T07:55:33.570Z,8.80
2018-12-25T07:58:13.712Z,8.95
2018-12-25T08:00:53.928Z,8.63
2018-12-25T08:03:33.932Z,8.38
2018-12-25T08:06:13.921Z,9.35
2018-12-25T08:08:54.058Z,8.78
2018-12-25T08:11:34.114Z,8.83
2018-12-25T08:14:14.046Z,9.25
2018-12-25T08:16:54.120Z,8.53
2018-12-25T08:19:34.264Z,8.70
2018-12-25T08:22:14.262Z,9.13
2018-12-25T08:24:41.602Z,9.05
2018-12-25T08:27:21.354Z,9.25
2018-12-25T08:30:01.625Z,9.18
2018-12-25T08:32:41.752Z,9.18
2018-12-25T08:35:21.873Z,10.98
2018-12-25T08:38:01.936Z,12.33
2018-12-25T08:40:42.122Z,11.78
2018-12-25T08:43:22.218Z,11.40
2018-12-25T08:46:02.551Z,10.03
2018-12-25T08:48:42.399Z,10.10
2018-12-25T08:51:22.459Z,9.95
2018-12-25T08:54:02.453Z,9.85
2018-12-25T08:56:42.569Z,10.18
2018-12-25T08:59:22.557Z,9.73
2018-12-25T09:02:02.675Z,10.65
2018-12-25T09:04:42.537Z,11.12
2018-12-25T09:07:22.433Z,10.25
2018-12-25T09:10:02.395Z,10.85
2018-12-25T09:12:42.592Z,10.78
2018-12-25T09:15:22.586Z,11.30
2018-12-25T09:18:02.768Z,11.20
2018-12-25T09:20:42.792Z,11.63
2018-12-25T09:23:22.903Z,12.35
2018-12-25T09:26:02.861Z,11.50
2018-12-25T09:28:43.729Z,11.22
2018-12-25T09:31:23.977Z,12.05
2018-12-25T09:34:03.889Z,11.73
2018-12-25T09:36:43.995Z,12.18
2018-12-25T09:39:23.987Z,12.07
2018-12-25T09:42:04.110Z,12.63
2018-12-25T09:44:43.828Z,11.95
2018-12-25T09:47:23.945Z,12.85
2018-12-25T09:50:03.790Z,13.03
2018-12-25T09:52:43.752Z,12.28
2018-12-25T09:55:23.867Z,12.13
2018-12-25T09:58:04.087Z,12.35
2018-12-25T10:00:44.292Z,12.55
2018-12-25T10:03:24.555Z,12.85
2018-12-25T10:06:04.448Z,12.25
2018-12-25T10:08:44.325Z,11.45
2018-12-25T10:11:24.347Z,12.00
2018-12-25T10:14:04.205Z,11.97
2018-12-25T10:16:44.539Z,11.22
2018-12-25T10:19:24.528Z,11.47
2018-12-25T10:22:05.313Z,11.10
2018-12-25T10:24:44.939Z,11.63
2018-12-25T10:27:25.074Z,11.57
2018-12-25T10:30:05.833Z,12.40
2018-12-25T10:32:46.759Z,10.90
2018-12-25T10:35:26.982Z,11.20
2018-12-25T10:38:06.948Z,11.53
2018-12-25T10:40:47.220Z,11.03
2018-12-25T10:43:27.234Z,11.50
2018-12-25T10:46:07.118Z,10.17
2018-12-25T10:48:47.226Z,10.40
2018-12-25T10:51:26.892Z,10.83
2018-12-25T10:54:06.940Z,9.73
2018-12-25T10:56:47.063Z,10.77
2018-12-25T10:59:27.205Z,10.53
2018-12-25T11:02:07.182Z,10.50
2018-12-25T11:04:47.212Z,10.30
2018-12-25T11:07:27.214Z,10.47
2018-12-25T11:10:07.659Z,11.87
2018-12-25T11:12:47.771Z,10.10
2018-12-25T11:15:28.021Z,10.90
2018-12-25T11:18:08.045Z,12.20
2018-12-25T11:20:48.226Z,10.67
2018-12-25T11:23:27.947Z,11.57
2018-12-25T11:26:08.124Z,11.20
2018-12-25T11:28:48.019Z,10.43
2018-12-25T11:31:28.272Z,10.70
2018-12-25T11:34:08.790Z,11.87
2018-12-25T11:36:49.498Z,10.83
2018-12-25T11:39:29.139Z,11.83
2018-12-25T11:42:09.229Z,11.17
2018-12-25T11:44:49.137Z,11.17
2018-12-25T11:47:29.225Z,11.80
2018-12-25T11:50:09.450Z,12.37
2018-12-25T11:52:49.359Z,11.77
2018-12-25T11:55:29.313Z,12.60
2018-12-25T11:58:09.269Z,12.43
2018-12-25T12:00:49.518Z,12.90
2018-12-25T12:03:30.415Z,13.03
2018-12-25T12:06:10.768Z,11.83
2018-12-25T12:08:50.837Z,13.27
2018-12-25T12:11:30.581Z,14.07
2018-12-25T12:14:10.805Z,13.10
2018-12-25T12:16:50.793Z,14.57
2018-12-25T12:19:31.010Z,14.70
2018-12-25T12:22:10.924Z,14.07
2018-12-25T12:24:38.261Z,14.50
2018-12-25T12:27:05.607Z,14.57
2018-12-25T12:29:32.990Z,15.07
2018-12-25T12:32:00.379Z,15.33
2018-12-25T12:34:28.066Z,15.97
2018-12-25T12:36:55.481Z,15.40
2018-12-25T12:39:22.833Z,14.83
2018-12-25T12:41:50.139Z,14.97
2018-12-25T12:44:36.967Z,16.03
2018-12-25T12:47:23.820Z,15.70
2018-12-25T12:50:10.677Z,15.53
2018-12-25T12:52:58.279Z,16.20
2018-12-25T12:55:45.032Z,16.50
2018-12-25T12:58:31.908Z,16.20
2018-12-25T13:01:18.757Z,16.47
2018-12-25T13:04:05.521Z,15.80
2018-12-25T13:06:52.249Z,14.67
2018-12-25T13:09:39.093Z,14.63
2018-12-25T13:12:26.027Z,15.53
2018-12-25T13:15:12.823Z,15.83
2018-12-25T13:17:59.671Z,18.97
2018-12-25T13:20:46.506Z,15.03
2018-12-25T13:23:33.333Z,14.80
2018-12-25T13:26:20.093Z,14.77
2018-12-25T13:29:06.919Z,14.07
2018-12-25T13:31:53.781Z,13.90
2018-12-25T13:34:40.589Z,14.27
2018-12-25T13:37:27.423Z,13.93
2018-12-25T13:40:14.245Z,12.77
2018-12-25T13:43:01.122Z,14.50
2018-12-25T13:45:47.937Z,13.53
2018-12-25T13:48:34.901Z,14.13
2018-12-25T13:51:21.750Z,13.57
2018-12-25T13:54:08.582Z,13.93
2018-12-25T13:56:55.422Z,14.20
2018-12-25T13:59:42.324Z,14.93
2018-12-25T14:02:29.182Z,13.97
2018-12-25T14:05:16.021Z,14.57
2018-12-25T14:08:02.863Z,13.73
2018-12-25T14:10:49.692Z,13.33
2018-12-25T14:13:36.539Z,13.37
2018-12-25T14:16:23.417Z,13.73
2018-12-25T14:19:10.250Z,14.00
2018-12-25T14:21:57.005Z,13.93
2018-12-25T14:24:44.121Z,13.83
2018-12-25T14:27:30.971Z,13.13
2018-12-25T14:30:10.673Z,13.00
2018-12-25T14:32:50.826Z,13.38
2018-12-25T14:35:30.945Z,14.63
2018-12-25T14:38:11.191Z,14.23
2018-12-25T14:40:51.394Z,14.35
2018-12-25T14:43:31.505Z,13.93
2018-12-25T14:46:11.523Z,13.90
2018-12-25T14:48:51.690Z,14.10
2018-12-25T14:51:31.460Z,14.35
2018-12-25T14:54:11.687Z,14.60
2018-12-25T14:56:51.926Z,14.53
2018-12-25T14:59:32.324Z,14.60
2018-12-25T15:02:12.661Z,14.10
2018-12-25T15:04:52.630Z,13.55
2018-12-25T15:07:32.618Z,14.05
2018-12-25T15:10:12.833Z,14.40
2018-12-25T15:12:52.996Z,12.73
2018-12-25T15:15:33.096Z,13.28
2018-12-25T15:18:13.260Z,14.28
2018-12-25T15:20:53.389Z,14.63
2018-12-25T15:23:33.516Z,13.18
2018-12-25T15:26:13.373Z,13.22
2018-12-25T15:28:53.358Z,13.78
2018-12-25T15:31:33.555Z,12.60
2018-12-25T15:34:13.651Z,12.40
2018-12-25T15:36:53.682Z,12.78
2018-12-25T15:39:21.167Z,12.95
2018-12-25T15:42:08.040Z,12.40
2018-12-25T15:44:54.887Z,12.75
2018-12-25T15:47:41.792Z,12.33
2018-12-25T15:50:28.718Z,12.50
2018-12-25T15:56:52.304Z,11.70
2018-12-25T15:59:39.150Z,12.53
2018-12-25T16:02:25.990Z,14.25
2018-12-25T16:05:12.814Z,14.13
2018-12-25T16:07:59.672Z,14.35
2018-12-25T16:10:46.565Z,13.53
2018-12-25T16:13:33.517Z,13.68
2018-12-25T16:16:20.347Z,13.72
2018-12-25T16:19:07.185Z,15.03
2018-12-25T16:21:54.832Z,15.18
2018-12-25T16:24:41.648Z,17.17
2018-12-25T16:27:28.486Z,16.32
2018-12-25T16:30:15.215Z,16.35
2018-12-25T16:32:55.395Z,15.48
2018-12-25T16:35:35.516Z,15.58
2018-12-25T16:38:15.545Z,16.40
2018-12-25T16:40:55.844Z,15.38
2018-12-25T16:43:33.718Z,16.40
2018-12-25T16:46:20.508Z,17.12
2018-12-25T16:49:07.227Z,17.90
2018-12-25T16:51:54.096Z,17.82
2018-12-25T16:54:40.989Z,18.42
2018-12-25T16:57:27.899Z,17.57
2018-12-25T17:00:14.727Z,18.30
2018-12-25T17:03:01.562Z,17.62
2018-12-25T17:05:48.372Z,18.92
2018-12-25T17:08:35.106Z,18.42
2018-12-25T17:11:21.973Z,17.15
2018-12-25T17:14:08.804Z,17.23
2018-12-25T17:16:55.696Z,17.25
2018-12-25T17:19:42.557Z,17.30
2018-12-25T17:22:29.473Z,17.10
2018-12-25T17:25:16.284Z,18.00
2018-12-25T17:28:03.368Z,16.97
2018-12-25T17:30:50.208Z,18.07
2018-12-25T17:33:37.043Z,18.30
2018-12-25T17:36:23.848Z,19.00
2018-12-25T17:39:10.613Z,18.90
2018-12-25T17:41:57.425Z,18.23
2018-12-25T17:44:44.325Z,18.02
2018-12-25T17:47:31.240Z,18.62
2018-12-25T17:50:18.052Z,18.15
2018-12-25T17:53:06.181Z,19.12
2018-12-25T17:56:13.493Z,17.48
2018-12-25T17:59:00.418Z,18.02
2018-12-25T18:01:47.260Z,17.65
2018-12-25T18:04:34.146Z,19.07
2018-12-25T18:07:21.243Z,18.55
2018-12-25T18:10:07.975Z,18.17
2018-12-25T18:12:54.779Z,19.23
2018-12-25T18:15:41.535Z,18.25
2018-12-25T18:18:28.258Z,18.75
2018-12-25T18:21:15.101Z,19.10
2018-12-25T18:24:01.798Z,17.82
2018-12-25T18:26:48.790Z,18.65
2018-12-25T18:29:36.374Z,17.12
2018-12-25T18:32:15.878Z,17.70
2018-12-25T18:34:43.390Z,17.98
2018-12-25T18:37:30.297Z,16.45
2018-12-25T18:40:17.100Z,17.35
2018-12-25T18:43:03.939Z,17.85
2018-12-25T18:45:50.735Z,17.62
2018-12-25T18:48:37.574Z,17.70
2018-12-25T18:51:24.391Z,16.60
2018-12-25T18:54:11.251Z,17.87
2018-12-25T18:56:57.966Z,18.77
2018-12-25T18:59:44.833Z,18.73
2018-12-25T19:02:31.736Z,19.95
2018-12-25T19:05:18.554Z,20.27
2018-12-25T19:08:05.438Z,21.05
2018-12-25T19:10:52.197Z,19.92
2018-12-25T19:13:39.242Z,21.00
2018-12-25T19:16:26.148Z,20.43
2018-12-25T19:19:13.013Z,20.60
2018-12-25T19:21:59.875Z,20.00
2018-12-25T19:24:46.726Z,20.57
2018-12-25T19:27:33.556Z,19.10
2018-12-25T19:30:21.351Z,20.17
2018-12-25T19:33:01.411Z,19.42
2018-12-25T19:35:41.538Z,20.02
2018-12-25T19:38:21.584Z,19.98
2018-12-25T19:41:01.654Z,22.10
2018-12-25T19:43:41.809Z,21.82
2018-12-25T19:46:21.847Z,24.47
2018-12-25T19:49:02.214Z,23.77
2018-12-25T19:51:42.520Z,22.50
2018-12-25T19:54:22.667Z,23.65
2018-12-25T19:57:02.576Z,23.22
2018-12-25T19:59:42.572Z,23.85
2018-12-25T20:02:22.669Z,23.32
2018-12-25T20:05:02.829Z,22.70
2018-12-25T20:07:42.966Z,23.10
2018-12-25T20:10:23.072Z,22.93
2018-12-25T20:13:03.277Z,23.30
2018-12-25T20:15:43.418Z,23.07
2018-12-25T20:18:23.514Z,23.32
2018-12-25T20:21:03.640Z,24.63
2018-12-25T20:23:43.716Z,23.62
2018-12-25T20:26:23.896Z,24.15
2018-12-25T20:29:04.023Z,24.20
2018-12-25T20:31:43.987Z,23.32
2018-12-25T20:34:24.102Z,22.60
2018-12-25T20:37:04.212Z,22.42
2018-12-25T20:39:44.328Z,22.62
2018-12-25T20:42:24.528Z,23.98
2018-12-25T20:45:04.552Z,24.63
2018-12-25T20:47:46.690Z,25.30
2018-12-25T20:50:28.800Z,24.32
2018-12-25T20:53:08.819Z,24.43
2018-12-25T20:55:48.786Z,24.98
2018-12-25T20:58:28.791Z,24.90
2018-12-25T21:01:08.991Z,24.60
2018-12-25T21:03:49.057Z,24.65
2018-12-25T21:06:29.002Z,26.02
2018-12-25T21:09:09.014Z,26.27
2018-12-25T21:11:49.225Z,25.55
2018-12-25T21:14:29.307Z,27.05
2018-12-25T21:17:09.493Z,27.40
2018-12-25T21:19:49.560Z,25.82
2018-12-25T21:22:29.623Z,26.62
2018-12-25T21:25:10.137Z,25.25
2018-12-25T21:27:49.705Z,25.65
2018-12-25T21:30:29.731Z,26.12
2018-12-25T21:33:09.682Z,26.82
2018-12-25T21:35:49.727Z,25.35
2018-12-25T21:38:29.575Z,27.70
2018-12-25T21:41:10.032Z,27.67
2018-12-25T21:43:50.078Z,26.62
2018-12-25T21:46:29.965Z,27.25
2018-12-25T21:49:09.822Z,26.20
2018-12-25T21:51:50.111Z,27.27
2018-12-25T21:54:30.035Z,27.35
2018-12-25T21:57:09.847Z,26.65
2018-12-25T21:59:37.498Z,26.23
2018-12-25T22:02:24.366Z,26.25
2018-12-25T22:05:11.338Z,27.50
2018-12-25T22:08:00.605Z,26.48
2018-12-25T22:10:47.437Z,25.10
2018-12-25T22:13:34.305Z,27.15
2018-12-25T22:16:21.242Z,27.05
2018-12-25T22:19:08.130Z,28.23
2018-12-25T22:21:55.142Z,27.55
2018-12-25T22:24:42.049Z,28.40
2018-12-25T22:27:28.758Z,27.27
2018-12-25T22:30:15.518Z,27.17
2018-12-25T22:33:02.391Z,27.80
2018-12-25T22:35:42.544Z,27.90
2018-12-25T22:38:22.666Z,28.07
2018-12-25T22:41:03.454Z,26.57
2018-12-25T22:43:43.611Z,28.32
2018-12-25T22:46:23.834Z,28.25
2018-12-25T22:49:03.591Z,29.70
2018-12-25T22:51:43.918Z,31.40
2018-12-25T22:54:23.910Z,28.73
2018-12-25T22:57:03.958Z,28.32
2018-12-25T22:59:44.092Z,28.77
2018-12-25T23:02:24.176Z,29.42
2018-12-25T23:05:04.276Z,29.92
2018-12-25T23:07:31.656Z,28.47
2018-12-25T23:10:00.468Z,29.37
2018-12-25T23:12:27.833Z,27.98
2018-12-25T23:15:14.732Z,27.58
2018-12-25T23:18:01.556Z,27.65
2018-12-25T23:20:48.415Z,27.90
2018-12-25T23:23:35.318Z,28.10
2018-12-25T23:26:22.182Z,26.87
2018-12-25T23:29:09.039Z,27.20
2018-12-25T23:31:55.967Z,27.62
2018-12-25T23:34:35.758Z,27.45
2018-12-25T23:37:15.928Z,26.90
2018-12-25T23:39:56.221Z,25.80
2018-12-25T23:42:36.460Z,27.13
2018-12-25T23:45:16.402Z,27.60
2018-12-25T23:47:56.494Z,26.20
2018-12-25T23:50:36.393Z,27.98
2018-12-25T23:53:16.607Z,26.70
2018-12-25T23:55:56.654Z,26.42
2018-12-25T23:58:36.935Z,26.55
